Date,TemperatureHighF,TemperatureAvgF,TemperatureLowF,DewpointHighF,DewpointAvgF,DewpointLowF,HumidityHigh,HumidityAvg,HumidityLow,PressureMaxIn,PressureMinIn,WindSpeedMaxMPH,WindSpeedAvgMPH,GustSpeedMaxMPH,PrecipitationSumIn
2013-1-1,67,59,50,54,-19,-100,101,49,76,0.00,40.00,26,15,0,0.08
2013-1-2,49,43,41,43,38,36,90,83,72,0.00,40.00,23,16,0,0.16
2013-1-3,49,45,43,38,36,33,83,70,54,0.00,40.00,19,14,0,0.00
2013-1-4,50,48,46,40,38,37,72,70,64,0.00,40.00,22,16,0,0.00
2013-1-5,48,46,44,46,42,38,98,87,72,0.00,40.00,19,13,0,0.02
2013-1-6,58,50,42,46,26,-100,103,84,56,0.00,40.00,13,10,0,0.00
2013-1-7,58,50,42,54,28,-100,102,90,76,0.00,40.00,21,13,0,0.00
2013-1-8,63,59,54,-100,-100,-100,104,9,100,0.00,40.00,16,10,0,0.10
2013-1-9,67,60,57,-100,-100,-100,104,30,100,0.00,40.00,18,11,0,2.19
2013-1-10,59,57,53,54,7,-100,104,88,70,0.00,40.00,15,8,0,0.00
2013-1-11,67,61,55,55,-87,-100,104,29,90,0.00,40.00,13,7,0,0.00
2013-1-12,70,67,64,-100,-100,-100,0,0,100,0.00,40.00,26,16,0,0.00
2013-1-13,70,54,46,44,-6,-100,104,49,55,0.00,40.00,30,19,0,0.05
2013-1-14,49,45,41,43,40,37,92,82,68,0.00,40.00,22,16,0,0.00
2013-1-15,46,43,41,45,-36,-100,104,89,87,0.00,40.00,22,17,0,0.04
2013-1-16,55,46,38,37,29,23,85,53,31,0.00,40.00,22,15,0,0.00
2013-1-17,62,52,42,46,37,29,77,58,39,0.00,40.00,15,7,0,0.00
2013-1-18,58,52,43,51,39,-100,103,79,56,0.00,40.00,11,8,0,0.00
2013-1-19,61,57,51,54,30,-100,104,85,72,0.00,40.00,9,7,0,0.00
2013-1-20,65,58,50,57,16,-100,102,68,72,0.00,40.00,11,5,0,0.00
2013-1-21,65,59,53,58,17,-100,102,67,56,0.00,40.00,12,5,0,0.00
2013-1-22,65,60,53,58,-15,-100,104,57,70,0.00,40.00,11,7,0,0.00
2013-1-23,68,60,55,63,-68,-100,104,31,80,0.00,40.00,15,5,0,0.00
2013-1-24,69,67,64,66,-10,-100,102,57,82,0.00,40.00,17,15,0,0.00
2013-1-25,69,66,63,66,-45,-100,104,47,84,0.00,40.00,17,13,0,0.00
2013-1-26,69,67,65,67,-4,-100,104,70,83,0.00,40.00,16,11,0,0.00
2013-1-27,70,68,66,64,-80,-100,104,59,91,0.00,40.00,21,13,0,0.00
2013-1-28,70,69,68,-100,-100,-100,104,26,100,0.00,40.00,21,15,0,0.00
2013-1-29,72,70,69,71,-65,-100,104,49,69,0.00,40.00,32,25,0,0.00
2013-1-30,68,61,55,47,31,23,47,32,22,0.00,40.00,32,20,0,0.00
2013-1-31,62,60,52,50,25,-100,78,53,33,0.00,40.00,14,11,0,0.00
2013-2-1,65,63,61,57,51,-100,83,70,54,0.00,40.00,12,8,0,0.00
2013-2-2,68,65,62,62,60,58,90,83,70,0.00,40.00,12,7,0,0.00
2013-2-3,66,62,57,61,24,-100,100,67,74,0.00,40.00,16,11,0,0.00
2013-2-4,69,67,65,67,29,-100,102,75,86,0.00,40.00,15,11,0,0.00
2013-2-5,71,67,65,70,-78,-100,104,17,96,0.00,40.00,13,8,0,0.00
2013-2-6,69,66,63,66,-45,-100,101,45,96,0.00,40.00,28,16,0,3.52
2013-2-7,69,66,62,68,-79,-100,104,42,98,0.00,40.00,12,6,0,0.00
2013-2-8,68,63,57,59,28,-100,89,61,51,0.00,40.00,20,12,0,0.00
2013-2-9,69,66,63,62,-26,-100,104,66,86,0.00,40.00,21,15,0,0.00
2013-2-10,70,68,65,57,-36,-100,71,27,60,0.00,40.00,20,14,0,0.00
2013-2-11,65,61,57,61,16,-100,104,62,64,0.00,40.00,22,18,0,0.00
2013-2-12,65,60,57,62,-40,-100,101,37,80,0.00,40.00,15,9,0,0.00
2013-2-13,63,56,49,61,46,39,95,69,45,0.00,40.00,23,11,0,0.00
2013-2-14,62,57,48,48,47,44,96,68,52,0.00,40.00,14,10,0,0.00
2013-2-15,65,61,55,55,51,45,93,71,51,0.00,40.00,21,11,0,0.00
2013-2-16,59,54,46,45,36,25,67,52,29,0.00,40.00,21,13,0,0.00
2013-2-17,64,61,51,58,51,45,88,72,58,0.00,40.00,20,14,0,0.00
2013-2-18,69,66,64,64,62,59,91,86,82,0.00,40.00,21,16,0,0.00
2013-2-19,67,61,59,63,46,-100,91,67,51,0.00,40.00,22,18,0,0.00
2013-2-20,68,65,61,64,-26,-100,104,49,79,0.00,40.00,20,15,0,0.00
2013-2-21,72,69,67,71,-33,-100,104,41,53,0.00,40.00,26,15,0,0.00
2013-2-22,66,63,59,56,50,45,79,62,48,0.00,40.00,22,16,0,0.00
2013-2-23,65,59,51,55,48,41,81,67,59,0.00,40.00,21,11,0,0.00
2013-2-24,65,61,53,63,-38,-100,104,42,81,0.00,40.00,20,11,0,0.00
2013-2-25,68,65,57,39,-49,-100,41,19,24,0.00,40.00,37,22,0,0.00
2013-2-26,67,56,49,52,27,-100,72,53,34,0.00,40.00,20,12,0,0.00
2013-2-27,69,61,54,56,18,-100,90,53,34,0.00,40.00,17,10,0,0.00
2013-2-28,58,53,47,39,33,28,62,47,33,0.00,40.00,21,14,0,0.00
2013-3-1,60,57,51,51,41,32,76,56,35,0.00,40.00,17,9,0,0.00
2013-3-2,61,54,46,46,35,26,80,52,29,0.00,40.00,22,15,0,0.00
2013-3-3,63,58,52,56,48,38,80,70,54,0.00,40.00,21,12,0,0.00
2013-3-4,69,66,63,63,59,55,88,79,68,0.00,40.00,29,24,0,0.00
2013-3-5,66,63,56,63,47,32,93,60,29,0.00,40.00,32,19,0,0.00
2013-3-6,58,53,43,50,37,27,74,56,38,0.00,40.00,17,13,0,0.00
2013-3-7,65,62,55,60,57,52,96,83,77,0.00,40.00,19,12,0,0.00
2013-3-8,67,65,64,67,-5,-100,104,75,87,0.00,40.00,18,13,0,0.00
2013-3-9,69,67,65,68,-38,-100,104,70,90,0.00,40.00,25,17,0,0.00
2013-3-10,71,67,60,69,-2,-100,95,37,39,0.00,40.00,26,18,0,0.04
2013-3-11,67,59,52,44,36,28,64,44,25,0.00,40.00,21,13,0,0.00
2013-3-12,66,62,55,55,48,43,82,62,44,0.00,40.00,13,9,0,0.00
2013-3-13,66,62,52,57,20,-100,102,61,43,0.00,40.00,16,12,0,0.00
2013-3-14,67,65,63,59,58,55,85,76,68,0.00,40.00,16,11,0,0.00
2013-3-15,68,66,64,63,61,59,89,82,76,0.00,40.00,22,16,0,0.00
2013-3-16,70,68,66,65,64,62,89,86,79,0.00,40.00,26,20,0,0.00
2013-3-17,72,69,67,70,12,-100,104,75,88,0.00,40.00,19,17,0,0.00
2013-3-18,72,70,68,69,-10,-100,103,61,84,0.00,40.00,18,12,0,0.00
2013-3-19,72,69,63,71,-10,-100,103,57,80,0.00,40.00,23,13,0,0.00
2013-3-20,72,68,63,68,16,-100,100,49,54,0.00,40.00,28,19,0,0.00
2013-3-21,69,68,65,66,61,55,90,80,70,0.00,40.00,20,17,0,0.00
2013-3-22,72,71,69,69,-93,-100,103,8,99,0.00,40.00,20,13,0,0.00
2013-3-23,74,70,65,69,-58,-100,104,30,80,0.00,40.00,16,10,0,0.00
2013-3-24,70,62,55,60,-3,-100,104,36,26,0.00,40.00,29,19,0,0.01
2013-3-25,60,53,44,36,30,15,70,44,18,0.00,40.00,22,14,0,0.00
2013-3-26,59,55,49,38,34,27,61,45,31,0.00,40.00,18,14,0,0.00
2013-3-27,64,61,59,59,49,39,84,64,47,0.00,40.00,16,14,0,0.00
2013-3-28,67,65,63,63,54,-100,101,87,80,0.00,40.00,15,9,0,0.00
2013-3-29,69,67,65,65,63,62,94,88,80,0.00,40.00,16,11,0,0.00
2013-3-30,71,68,67,68,-17,-100,104,76,89,0.00,40.00,18,13,0,0.00
2013-3-31,72,70,68,72,-50,-100,104,54,88,0.00,40.00,20,15,0,0.00
2013-4-1,72,70,69,71,-44,-100,103,34,85,0.00,40.00,19,13,0,0.00
2013-4-2,74,72,70,74,-72,-100,104,39,91,0.00,40.00,17,14,0,0.06
2013-4-3,71,65,57,65,34,-100,102,75,75,0.00,40.00,23,16,0,0.00
2013-4-4,67,59,54,53,50,47,91,73,50,0.00,40.00,19,15,0,0.00
2013-4-5,62,56,49,56,49,45,88,78,66,0.00,40.00,16,11,0,0.00
2013-4-6,70,67,63,64,61,57,88,80,73,0.00,40.00,21,18,0,0.00
2013-4-7,71,70,68,67,65,64,91,85,78,0.00,40.00,22,17,0,0.00
2013-4-8,72,71,69,72,-75,-100,104,57,92,0.00,40.00,22,16,0,0.00
2013-4-9,74,72,70,-100,-100,-100,104,38,100,0.00,40.00,27,20,0,0.00
2013-4-10,75,67,56,75,-34,-100,104,53,79,0.00,40.00,29,20,0,0.00
2013-4-11,67,58,49,54,46,39,90,67,43,0.00,40.00,29,16,0,0.82
2013-4-12,68,64,55,61,50,-100,101,79,68,0.00,40.00,19,12,0,0.00
2013-4-13,70,68,66,65,62,61,92,81,73,0.00,40.00,21,14,0,0.00
2013-4-14,74,70,64,73,-93,-100,104,43,100,0.00,40.00,22,13,0,0.00
2013-4-15,75,73,70,75,-51,-100,104,45,97,0.00,40.00,21,16,0,0.00
2013-4-16,75,73,72,74,-78,-100,104,51,94,0.00,40.00,24,16,0,0.00
2013-4-17,75,74,73,-100,-100,-100,0,0,100,0.00,40.00,25,17,0,0.00
2013-4-18,74,68,58,57,-49,-100,101,30,67,0.00,40.00,32,20,0,0.04
2013-4-19,67,59,53,49,42,33,72,54,30,0.00,40.00,25,15,0,0.00
2013-4-20,66,61,53,55,48,40,78,62,44,0.00,40.00,17,12,0,0.00
2013-4-21,70,68,64,64,60,56,86,78,70,0.00,40.00,21,13,0,0.00
2013-4-22,72,69,67,67,65,63,90,86,81,0.00,40.00,20,13,0,0.00
2013-4-23,73,72,70,73,-56,-100,104,56,98,0.00,40.00,19,16,0,0.00
2013-4-24,73,58,51,57,7,-100,103,62,71,0.00,40.00,32,17,0,0.06
2013-4-25,66,63,61,60,28,-100,94,62,64,0.00,40.00,20,12,0,0.41
2013-4-26,72,70,67,-100,-100,-100,0,0,100,0.00,40.00,17,12,0,0.00
2013-4-27,73,72,70,73,-93,-100,103,17,100,0.00,40.00,17,12,0,0.01
2013-4-28,73,70,65,73,-23,-100,103,65,83,0.00,40.00,24,14,0,0.66
2013-4-29,74,72,71,74,-78,-100,104,29,94,0.00,40.00,18,10,0,0.20
2013-4-30,75,72,69,74,5,-100,101,59,80,0.00,40.00,17,10,0,0.03
2013-5-1,77,74,73,75,-28,-100,102,54,82,0.00,40.00,14,10,0,0.00
2013-5-2,76,68,55,74,40,-100,103,71,65,0.00,40.00,31,19,0,0.00
2013-5-3,67,59,51,47,37,31,76,46,28,0.00,40.00,30,21,0,0.00
2013-5-4,69,66,62,55,48,40,67,52,43,0.00,40.00,19,12,0,0.00
2013-5-5,75,68,60,60,56,45,88,66,34,0.00,40.00,13,10,0,0.00
2013-5-6,72,69,62,62,59,56,97,71,60,0.00,40.00,15,8,0,0.00
2013-5-7,72,70,64,68,43,-100,101,73,70,0.00,40.00,19,9,0,0.00
2013-5-8,74,73,71,72,68,66,94,85,77,0.00,40.00,21,16,0,0.00
2013-5-9,75,74,73,74,-93,-100,100,4,100,0.00,40.00,19,15,0,0.00
2013-5-10,75,74,69,74,-35,-100,103,49,91,0.00,40.00,22,13,0,0.05
2013-5-11,82,74,70,73,32,-100,102,67,52,0.00,40.00,19,12,0,0.13
2013-5-12,76,73,69,68,63,58,80,70,61,0.00,40.00,16,13,0,0.01
2013-5-13,75,72,65,66,63,62,90,74,66,0.00,40.00,16,11,0,0.00
2013-5-14,76,74,72,71,69,65,89,85,76,0.00,40.00,22,15,0,0.00
2013-5-15,75,74,74,72,-54,-100,104,36,87,0.00,40.00,28,20,0,0.31
2013-5-16,77,70,75,76,-55,-100,104,65,97,0.00,40.00,25,22,0,0.00
2013-5-17,79,75,75,78,-64,-100,103,49,92,0.00,40.00,21,19,0,0.00
2013-5-18,79,77,76,78,-56,-100,102,32,85,0.00,40.00,23,19,0,0.00
2013-5-19,78,78,77,78,-78,-100,104,64,100,0.00,40.00,26,22,0,0.00
2013-5-20,79,78,77,78,-70,-100,104,59,98,0.00,40.00,24,20,0,0.00
2013-5-21,80,79,78,79,-40,-100,104,50,94,0.00,40.00,23,17,0,0.00
2013-5-22,81,80,78,79,-30,-100,98,36,82,0.00,40.00,17,12,0,0.00
2013-5-23,80,79,78,80,-77,-100,104,34,100,0.00,40.00,19,15,0,0.00
2013-5-24,80,80,79,80,-26,-100,103,48,90,0.00,40.00,23,17,0,0.00
2013-5-25,80,79,79,80,-69,-100,104,75,97,0.00,40.00,23,19,0,0.01
2013-5-26,80,79,78,79,67,-100,101,87,78,0.00,40.00,21,17,0,0.00
2013-5-27,80,79,78,79,55,-100,104,93,83,0.00,40.00,24,20,0,0.00
2013-5-28,80,80,79,79,56,-100,104,97,86,0.00,40.00,27,24,0,0.00
2013-5-29,80,80,79,80,-48,-100,104,102,96,0.00,40.00,29,23,0,0.00
2013-5-30,81,80,79,80,-85,-100,104,73,100,0.00,40.00,26,20,0,0.00
2013-5-31,82,81,80,82,-47,-100,104,46,97,0.00,40.00,24,19,0,0.00
2013-6-1,82,81,81,79,25,-100,104,69,82,0.00,40.00,26,20,0,0.00
2013-6-2,83,80,74,78,61,-100,99,77,71,0.00,40.00,25,12,0,0.13
2013-6-3,82,79,74,74,36,-100,104,65,68,0.00,40.00,16,10,0,0.00
2013-6-4,82,80,79,72,71,69,78,73,69,0.00,40.00,16,10,0,0.00
2013-6-5,83,82,79,76,74,73,86,78,72,0.00,40.00,18,12,0,0.01
2013-6-6,84,82,78,79,40,-100,92,65,75,0.00,40.00,16,10,0,0.00
2013-6-7,84,79,73,77,48,-100,101,74,64,0.00,40.00,27,11,0,0.69
2013-6-8,83,80,74,77,74,71,100,84,69,0.00,40.00,20,11,0,0.00
2013-6-9,84,82,80,78,76,72,86,82,76,0.00,40.00,23,16,0,0.00
2013-6-10,85,83,79,79,69,-100,89,77,72,0.00,40.00,16,11,0,0.00
2013-6-11,84,83,82,78,76,74,83,80,75,0.00,40.00,19,15,0,0.02
2013-6-12,84,83,78,79,77,71,87,82,74,0.00,40.00,19,15,0,0.39
2013-6-13,85,83,82,79,67,-100,86,82,71,0.00,40.00,19,14,0,0.00
2013-6-14,84,83,82,78,77,76,87,82,78,0.00,40.00,15,14,0,0.00
2013-6-15,85,84,82,78,77,75,86,80,73,0.00,40.00,19,16,0,0.00
2013-6-16,85,83,82,78,77,76,82,80,77,0.00,40.00,22,17,0,0.00
2013-6-17,84,83,82,78,70,-100,85,82,79,0.00,40.00,22,19,0,0.00
2013-6-18,84,83,81,78,76,75,85,81,75,0.00,40.00,21,16,0,0.00
2013-6-19,84,83,81,77,76,75,84,80,75,0.00,40.00,20,16,0,0.00
2013-6-20,85,83,82,77,77,76,84,81,76,0.00,40.00,19,16,0,0.00
2013-6-22,84,84,83,78,76,75,85,79,76,0.00,40.00,20,16,0,0.00
2013-6-23,84,83,81,78,76,74,86,80,74,0.00,40.00,22,17,0,0.00
2013-6-24,84,83,82,78,77,76,86,81,77,0.00,40.00,22,19,0,0.01
2013-6-25,84,83,82,79,77,76,88,82,77,0.00,40.00,23,20,0,0.00
2013-6-26,84,83,82,78,77,77,87,84,79,0.00,40.00,22,19,0,0.00
2013-6-27,84,82,80,78,76,74,87,81,71,0.00,40.00,19,14,0,0.00
2013-6-28,85,82,80,80,77,73,98,82,70,0.00,40.00,21,13,0,0.00
2013-6-29,86,82,79,80,76,73,99,80,65,0.00,40.00,20,13,0,0.00
2013-6-30,87,82,77,76,72,69,83,72,57,0.00,40.00,27,13,0,0.32
2013-7-1,88,83,78,74,68,62,77,62,43,0.00,40.00,15,10,0,0.00
2013-7-2,87,83,78,74,68,60,83,62,41,0.00,40.00,18,8,0,0.00
2013-7-3,84,81,79,74,66,-100,82,72,64,0.00,40.00,19,11,0,0.00
2013-7-4,83,82,79,74,73,71,84,75,66,0.00,40.00,15,9,0,0.00
2013-7-5,85,83,78,77,68,-100,93,73,67,0.00,40.00,17,10,0,0.00
2013-7-6,85,82,78,78,53,-100,89,67,67,0.00,40.00,17,12,0,0.00
2013-7-7,84,82,81,77,76,73,86,81,70,0.00,40.00,22,12,0,0.00
2013-7-8,85,82,82,78,75,-100,84,81,75,0.00,40.00,22,17,0,0.00
2013-7-9,85,84,82,78,77,76,85,81,76,0.00,40.00,18,12,0,0.31
2013-7-10,85,82,83,77,73,-100,83,77,73,0.00,40.00,18,13,0,0.00
2013-7-11,85,83,81,78,76,74,85,79,72,0.00,40.00,18,14,0,0.00
2013-7-12,85,83,81,76,75,73,82,77,69,0.00,40.00,20,12,0,0.00
2013-7-13,86,83,80,76,75,71,87,76,60,0.00,40.00,15,9,0,0.00
2013-7-14,84,83,81,77,76,74,86,78,72,0.00,40.00,20,14,0,0.00
2013-7-15,84,84,83,77,76,74,82,76,70,0.00,40.00,22,17,0,0.02
2013-7-16,83,82,79,77,75,73,89,80,73,0.00,40.00,23,18,0,0.09
2013-7-17,82,78,74,76,-12,-100,104,56,81,0.00,40.00,16,10,0,1.18
2013-7-18,83,80,75,81,-2,-100,104,60,74,0.00,40.00,12,9,0,0.48
2013-7-19,84,83,81,81,76,73,96,80,70,0.00,40.00,17,11,0,0.00
2013-7-20,84,82,82,77,74,-100,81,77,73,0.00,40.00,18,12,0,0.00
2013-7-21,85,84,83,79,78,77,85,81,78,0.00,40.00,22,16,0,0.01
2013-7-22,85,84,83,79,78,77,85,82,77,0.00,40.00,25,20,0,0.00
2013-7-23,84,84,83,78,76,75,83,79,74,0.00,40.00,24,20,0,0.00
2013-7-24,84,83,82,77,76,74,85,79,72,0.00,40.00,21,16,0,0.00
2013-7-25,85,84,81,79,77,75,86,81,77,0.00,40.00,20,14,0,0.00
2013-7-26,85,84,82,78,77,76,84,82,77,0.00,40.00,25,19,0,0.00
2013-7-27,85,83,82,78,77,76,88,82,76,0.00,40.00,25,16,0,0.00
2013-7-28,85,83,82,79,78,76,87,82,77,0.00,40.00,24,18,0,0.00
2013-7-29,84,83,82,79,77,76,87,82,76,0.00,40.00,23,20,0,0.00
2013-7-30,84,83,82,78,77,76,88,83,78,0.00,40.00,23,18,0,0.00
2013-7-31,84,83,80,78,8,-100,88,82,77,0.00,40.00,19,14,0,0.00
2013-8-1,86,83,81,78,-69,-100,89,81,65,0.00,40.00,18,14,0,0.00
2013-8-2,85,83,81,79,-26,-100,91,82,72,0.00,40.00,20,13,0,0.00
2013-8-3,85,84,82,79,77,74,87,81,75,0.00,40.00,20,15,0,0.00
2013-8-4,85,84,83,79,78,77,86,81,76,0.00,40.00,20,16,0,0.00
2013-8-5,85,84,83,79,78,76,86,82,76,0.00,40.00,25,19,0,0.00
2013-8-6,85,84,82,79,78,76,88,83,77,0.00,40.00,26,21,0,0.00
2013-8-7,85,84,82,79,78,76,88,83,76,0.00,40.00,24,21,0,0.00
2013-8-8,85,83,81,79,78,77,89,84,78,0.00,40.00,21,17,0,0.00
2013-8-9,86,83,80,80,77,76,89,82,74,0.00,40.00,16,10,0,0.00
2013-8-10,86,83,81,80,33,-100,103,70,73,0.00,40.00,15,10,0,0.02
2013-8-11,87,83,81,82,44,-100,104,69,65,0.00,40.00,19,10,0,0.00
2013-8-12,86,83,81,79,77,74,87,80,69,0.00,40.00,16,12,0,0.00
2013-8-13,86,84,83,79,76,-100,86,80,73,0.00,40.00,22,16,0,0.00
2013-8-14,86,83,82,79,75,-100,89,81,69,0.00,40.00,24,16,0,0.00
2013-8-15,86,79,80,78,67,-100,89,77,68,0.00,40.00,19,11,0,0.00
2013-8-16,86,82,77,78,66,-100,102,80,71,0.00,40.00,20,10,0,0.21
2013-8-17,87,80,74,76,44,-100,100,62,60,0.00,40.00,18,12,0,0.00
2013-8-18,86,83,78,77,64,-100,102,71,52,0.00,40.00,19,11,0,0.00
2013-8-19,85,79,75,78,37,-100,104,66,64,0.00,40.00,19,12,0,0.00
2013-8-20,83,80,75,78,44,-100,101,72,68,0.00,40.00,15,10,0,0.84
2013-8-21,86,84,82,78,77,75,86,79,71,0.00,40.00,15,10,0,0.05
2013-8-22,85,83,79,80,39,-100,96,62,73,0.00,40.00,13,8,0,0.00
2013-8-23,87,84,80,78,55,-100,101,70,62,0.00,40.00,16,10,0,0.00
2013-8-24,86,82,79,81,33,-100,104,69,71,0.00,40.00,20,12,0,0.00
2013-8-25,86,83,78,80,35,-100,97,59,68,0.00,40.00,16,12,0,0.00
2013-8-26,84,79,75,78,-18,-100,101,43,76,0.00,40.00,15,8,0,3.57
2013-8-27,85,83,82,79,77,75,89,82,75,0.00,40.00,15,13,0,0.00
2013-8-28,85,85,84,77,76,74,80,74,69,0.00,40.00,17,14,0,0.00
2013-8-29,87,84,81,82,69,-100,98,73,62,0.00,40.00,14,8,0,0.00
2013-8-30,86,84,80,77,75,71,90,76,60,0.00,40.00,15,9,0,0.00
2013-8-31,85,83,81,76,73,-100,83,74,68,0.00,40.00,15,10,0,0.00
2013-9-1,86,84,82,78,76,75,84,78,71,0.00,40.00,19,13,0,0.00
2013-9-2,86,84,83,78,77,71,84,78,67,0.00,40.00,17,12,0,0.00
2013-9-3,86,84,77,82,48,-100,100,65,67,0.00,40.00,15,9,0,0.00
2013-9-4,87,84,79,77,71,-100,88,73,64,0.00,40.00,15,9,0,0.00
2013-9-5,86,84,80,78,45,-100,104,70,67,0.00,40.00,16,12,0,0.00
2013-9-6,86,84,79,77,55,-100,88,68,67,0.00,40.00,16,10,0,0.00
2013-9-7,84,82,79,80,60,-100,100,73,72,0.00,40.00,16,9,0,0.41
2013-9-8,84,81,77,77,60,-100,94,75,76,0.00,40.00,19,10,0,0.76
2013-9-9,83,81,78,78,60,-100,91,75,74,0.00,40.00,25,14,0,0.11
2013-9-10,85,83,80,77,76,75,86,78,75,0.00,40.00,18,14,0,0.00
2013-9-11,85,83,80,77,76,74,86,78,72,0.00,40.00,19,13,0,0.27
2013-9-12,85,83,78,78,40,-100,104,66,67,0.00,40.00,18,12,0,0.25
2013-9-13,85,82,77,79,25,-100,101,58,66,0.00,40.00,17,13,0,0.00
2013-9-14,85,82,77,77,18,-100,87,51,67,0.00,40.00,20,13,0,0.00
2013-9-15,85,83,81,78,67,-100,101,82,75,0.00,40.00,21,14,0,0.09
2013-9-16,84,82,79,81,49,-100,104,79,78,0.00,40.00,27,16,0,0.18
2013-9-17,85,83,80,82,43,-100,96,66,73,0.00,40.00,20,13,0,0.34
2013-9-18,84,82,80,78,42,-100,85,66,80,0.00,40.00,13,10,0,0.00
2013-9-19,85,83,81,78,78,77,87,83,78,0.00,40.00,18,12,0,0.01
2013-9-20,84,83,81,79,71,-100,94,82,82,0.00,40.00,21,16,0,0.17
2013-9-21,79,76,74,75,-16,-100,103,44,74,0.00,40.00,25,19,0,0.16
2013-9-22,82,77,71,70,65,59,86,68,47,0.00,40.00,17,13,0,0.00
2013-9-23,83,77,71,75,71,66,90,81,71,0.00,40.00,19,10,0,0.00
2013-9-24,89,82,75,77,60,-100,104,76,51,0.00,40.00,13,8,0,0.00
2013-9-25,87,82,78,78,50,-100,96,67,47,0.00,40.00,11,7,0,0.00
2013-9-26,85,83,81,77,76,73,83,79,71,0.00,40.00,18,11,0,0.00
2013-9-27,84,83,82,80,78,76,89,85,78,0.00,40.00,20,16,0,0.00
2013-9-28,85,83,83,82,77,-100,97,84,78,0.00,40.00,20,17,0,0.00
2013-9-29,86,82,78,78,63,-100,104,81,67,0.00,40.00,20,10,0,0.00
2013-9-30,83,79,73,78,31,-100,98,63,79,0.00,40.00,15,10,0,0.08
2013-10-1,83,82,82,78,77,76,88,84,80,0.00,40.00,18,17,0,0.00
2013-10-2,84,83,82,78,76,74,86,79,75,0.00,40.00,18,14,0,0.00
2013-10-3,83,82,80,77,74,73,84,77,71,0.00,40.00,18,14,0,0.00
2013-10-4,83,82,82,76,75,74,82,78,76,0.00,40.00,18,15,0,0.00
2013-10-5,84,82,81,77,75,75,82,79,75,0.00,40.00,17,10,0,0.00
2013-10-6,78,69,58,71,34,-100,101,56,36,0.00,40.00,26,18,0,0.37
2013-10-7,81,74,64,60,42,-100,68,44,27,0.00,40.00,15,10,0,0.00
2013-10-8,77,74,65,66,60,55,77,62,47,0.00,40.00,10,7,0,0.00
2013-10-9,79,78,76,68,66,62,72,66,61,0.00,40.00,13,10,0,0.00
2013-10-10,80,79,78,73,70,68,79,74,69,0.00,40.00,18,12,0,0.00
2013-10-11,82,80,79,78,44,-100,92,70,79,0.00,40.00,18,14,0,0.00
2013-10-12,83,81,80,79,-55,-100,103,26,85,0.00,40.00,17,14,0,0.00
2013-10-13,81,80,76,80,-26,-100,98,37,81,0.00,40.00,21,13,0,0.32
2013-10-14,82,81,79,77,74,71,92,79,70,0.00,40.00,18,15,0,0.29
2013-10-15,81,81,80,74,73,72,82,77,72,0.00,40.00,17,14,0,0.00
2013-10-16,80,73,65,74,39,-100,102,73,76,0.00,40.00,18,13,0,0.00
2013-10-17,77,69,64,64,60,55,99,74,56,0.00,40.00,20,13,0,0.00
2013-10-18,76,72,69,68,-52,-100,104,42,77,0.00,40.00,16,11,0,0.08
2013-10-19,71,66,60,59,-16,-100,104,43,48,0.00,40.00,23,18,0,0.15
2013-10-20,73,66,56,65,58,49,90,76,66,0.00,40.00,14,9,0,0.00
2013-10-21,76,73,68,72,5,-100,104,59,84,0.00,40.00,12,7,0,0.12
2013-10-22,75,69,62,67,-2,-100,104,60,45,0.00,40.00,20,14,0,0.00
2013-10-23,76,70,60,62,2,-100,72,57,37,0.00,40.00,10,7,0,0.00
2013-10-24,76,72,64,66,58,-100,86,71,55,0.00,40.00,11,7,0,0.00
2013-10-25,77,72,65,70,27,-100,95,62,72,0.00,40.00,18,10,0,0.01
2013-10-26,77,75,74,71,67,-100,84,78,74,0.00,40.00,15,12,0,0.02
2013-10-27,77,75,71,76,2,-100,102,60,79,0.00,40.00,15,8,0,0.00
2013-10-28,79,76,75,75,35,-100,101,72,78,0.00,40.00,17,12,0,0.00
2013-10-29,79,78,77,75,58,-100,90,76,78,0.00,40.00,19,15,0,0.00
2013-10-30,80,79,78,-100,-100,-100,0,0,100,0.00,40.00,23,18,0,0.00
2013-10-31,84,80,76,79,-29,-100,101,37,57,0.00,40.00,20,13,0,0.09
2013-11-1,79,76,72,74,62,-100,101,79,68,0.00,40.00,13,9,0,0.00
2013-11-2,75,68,62,62,46,-100,67,48,30,0.00,40.00,26,18,0,0.00
2013-11-3,72,65,56,59,54,48,86,67,54,0.00,40.00,15,11,0,0.00
2013-11-4,73,70,62,70,38,-100,104,81,62,0.00,40.00,15,9,0,0.00
2013-11-5,77,74,69,74,-6,-100,95,49,82,0.00,40.00,16,9,0,0.00
2013-11-6,78,72,60,76,-37,-100,98,33,82,0.00,40.00,27,11,0,0.22
2013-11-7,64,59,55,53,45,38,78,60,40,0.00,40.00,25,18,0,0.00
2013-11-8,66,60,53,57,52,47,84,74,66,0.00,40.00,17,14,0,0.00
2013-11-9,71,65,58,64,59,-100,98,85,73,0.00,40.00,14,11,0,0.00
2013-11-10,68,66,63,64,-6,-100,103,55,67,0.00,40.00,21,11,0,0.04
2013-11-11,74,68,64,65,47,-100,90,70,60,0.00,40.00,14,9,0,0.00
2013-11-12,71,63,56,58,22,-100,89,59,58,0.00,40.00,28,20,0,0.00
2013-11-13,56,50,43,48,36,26,81,60,32,0.00,40.00,23,14,0,0.00
2013-11-14,64,56,46,59,43,-100,96,76,64,0.00,40.00,13,9,0,0.00
2013-11-15,70,63,57,64,-50,-100,102,30,79,0.00,40.00,9,6,0,0.00
2013-11-16,73,69,66,-100,-100,-100,0,0,100,0.00,40.00,14,8,0,0.00
2013-11-17,77,73,69,73,-64,-100,97,18,81,0.00,40.00,17,11,0,0.00
2013-11-18,75,71,69,67,-67,-100,90,17,69,0.00,40.00,17,8,0,0.01
2013-11-19,69,67,65,63,60,56,91,78,63,0.00,40.00,19,16,0,0.00
2013-11-20,73,70,65,71,-4,-100,99,53,86,0.00,40.00,18,11,0,0.00
2013-11-21,76,73,71,-100,-100,-100,0,0,100,0.00,40.00,13,9,0,0.00
2013-11-22,73,58,42,-100,-100,-100,0,0,100,0.00,40.00,30,18,0,0.74
2013-11-23,47,44,41,45,-41,-100,100,38,87,0.00,40.00,24,21,0,0.00
2013-11-24,48,46,42,46,24,-100,93,72,69,0.00,40.00,21,18,0,0.00
2013-11-25,45,42,41,40,-76,-100,104,29,86,0.00,40.00,25,19,0,0.29
2013-11-26,49,45,42,41,18,-100,101,68,63,0.00,40.00,27,20,0,0.09
2013-11-27,52,46,40,38,32,24,79,61,35,0.00,40.00,20,11,0,0.00
2013-11-28,58,48,40,48,34,-100,92,71,43,0.00,40.00,11,9,0,0.00
2013-11-29,60,54,47,53,-7,-100,91,50,75,0.00,40.00,19,14,0,0.00
2013-11-30,64,58,50,59,-11,-100,101,52,77,0.00,40.00,10,7,0,0.00
2013-12-1,69,62,55,65,-29,-100,100,37,76,0.00,40.00,12,6,0,0.00
2013-12-2,68,63,59,64,-28,-100,101,43,87,0.00,40.00,17,9,0,0.00
2013-12-3,69,66,63,67,-5,-100,98,52,88,0.00,40.00,19,13,0,0.00
2013-12-4,72,68,65,-100,-100,-100,0,0,100,0.00,40.00,18,12,0,0.00
2013-12-5,71,59,43,53,-36,-100,92,39,86,0.00,40.00,26,15,0,0.02
2013-12-6,45,40,36,38,36,32,97,86,73,0.00,40.00,25,21,0,0.00
2013-12-7,35,34,33,32,29,-100,93,86,82,0.00,40.00,20,15,0,0.00
2013-12-8,47,40,34,45,37,32,97,91,79,0.00,40.00,14,8,0,0.00
2013-12-9,50,47,42,45,-89,-100,96,7,95,0.00,40.00,23,14,0,0.06
2013-12-10,47,42,35,40,26,-100,99,65,47,0.00,40.00,26,15,0,0.00
2013-12-11,53,48,44,45,39,34,78,71,66,0.00,40.00,11,8,0,0.00
2013-12-12,55,49,43,41,38,36,81,68,50,0.00,40.00,19,12,0,0.00
2013-12-13,64,53,46,60,29,-100,91,72,76,0.00,40.00,12,7,0,0.00
2013-12-14,63,54,46,52,19,-100,101,66,46,0.00,40.00,25,11,0,0.00
2013-12-15,54,47,41,44,22,-100,87,69,48,0.00,40.00,15,8,0,0.00
2013-12-16,57,53,45,51,39,-100,93,71,56,0.00,40.00,9,5,0,0.00
2013-12-17,63,56,45,55,-13,-100,103,57,54,0.00,40.00,9,6,0,0.00
2013-12-18,65,59,49,57,0,-100,89,50,67,0.00,40.00,11,7,0,0.00
2013-12-19,67,63,60,64,-48,-100,96,29,86,0.00,40.00,16,10,0,0.00
2013-12-20,68,65,63,-100,-100,-100,0,0,100,0.00,40.00,20,12,0,0.01
2013-12-21,72,67,62,71,-32,-100,100,35,66,0.00,40.00,24,13,0,0.01
2013-12-22,67,60,48,59,42,-100,100,65,41,0.00,40.00,24,15,0,0.00
2013-12-23,57,47,39,39,22,-100,80,62,34,0.00,40.00,20,12,0,0.00
2013-12-24,57,49,41,51,40,-100,94,82,70,0.00,40.00,15,10,0,0.00
2013-12-25,61,57,52,56,-28,-100,102,50,82,0.00,40.00,14,8,0,0.02
2013-12-26,56,54,51,53,26,-100,98,75,72,0.00,40.00,17,13,0,0.03
2013-12-27,55,52,50,51,-25,-100,93,43,80,0.00,40.00,13,10,0,0.11
2013-12-28,58,51,49,48,34,-100,88,74,54,0.00,40.00,10,6,0,0.00
2013-12-29,60,56,47,55,45,-100,94,80,68,0.00,40.00,13,5,0,0.00
2013-12-30,57,44,40,51,37,34,85,76,66,0.00,40.00,25,17,0,0.00
2013-12-31,46,44,42,43,37,33,90,77,66,0.00,40.00,16,9,0,0.07
2014-1-1,55,50,46,50,-20,-100,95,51,90,0.00,40.00,9,6,0,0.01
2014-1-2,56,50,43,43,-2,-100,71,43,46,0.00,40.00,30,16,0,0.00